sensor_id;sensor_type;location;lat;lon;timestamp;temperature;humidity
43995;DHT22;51687;52.160;5.298;2023-04-25T00:02:14;12.70;58.50
43995;DHT22;51687;52.160;5.298;2023-04-25T00:04:41;12.60;58.90
43995;DHT22;51687;52.160;5.298;2023-04-25T00:07:09;12.60;59.10
43995;DHT22;51687;52.160;5.298;2023-04-25T00:09:36;12.60;59.20
43995;DHT22;51687;52.160;5.298;2023-04-25T00:12:03;12.60;59.30
43995;DHT22;51687;52.160;5.298;2023-04-25T00:14:29;12.60;59.50
43995;DHT22;51687;52.160;5.298;2023-04-25T00:16:56;12.60;59.10
43995;DHT22;51687;52.160;5.298;2023-04-25T00:19:24;12.50;59.00
43995;DHT22;51687;52.160;5.298;2023-04-25T00:21:51;12.50;59.30
43995;DHT22;51687;52.160;5.298;2023-04-25T00:24:18;12.50;59.70
43995;DHT22;51687;52.160;5.298;2023-04-25T00:26:44;12.50;59.30
43995;DHT22;51687;52.160;5.298;2023-04-25T00:29:11;12.50;59.30
43995;DHT22;51687;52.160;5.298;2023-04-25T00:31:38;12.50;59.70
43995;DHT22;51687;52.160;5.298;2023-04-25T00:34:06;12.50;59.80
43995;DHT22;51687;52.160;5.298;2023-04-25T00:36:33;12.50;59.90
43995;DHT22;51687;52.160;5.298;2023-04-25T00:38:59;12.50;59.80
43995;DHT22;51687;52.160;5.298;2023-04-25T00:41:26;12.50;59.80
43995;DHT22;51687;52.160;5.298;2023-04-25T00:43:54;12.50;59.60
43995;DHT22;51687;52.160;5.298;2023-04-25T00:46:22;12.50;59.50
43995;DHT22;51687;52.160;5.298;2023-04-25T00:48:49;12.50;59.40
43995;DHT22;51687;52.160;5.298;2023-04-25T00:51:22;12.50;59.40
43995;DHT22;51687;52.160;5.298;2023-04-25T00:53:49;12.40;59.50
43995;DHT22;51687;52.160;5.298;2023-04-25T00:56:17;12.40;59.60
43995;DHT22;51687;52.160;5.298;2023-04-25T00:58:44;12.40;59.90
43995;DHT22;51687;52.160;5.298;2023-04-25T01:01:12;12.40;59.90
43995;DHT22;51687;52.160;5.298;2023-04-25T01:03:40;12.40;60.20
43995;DHT22;51687;52.160;5.298;2023-04-25T01:06:09;12.30;60.20
43995;DHT22;51687;52.160;5.298;2023-04-25T01:08:38;12.30;59.80
43995;DHT22;51687;52.160;5.298;2023-04-25T01:11:05;12.30;59.60
43995;DHT22;51687;52.160;5.298;2023-04-25T01:13:33;12.30;59.60
43995;DHT22;51687;52.160;5.298;2023-04-25T01:16:01;12.30;59.50
43995;DHT22;51687;52.160;5.298;2023-04-25T01:18:28;12.20;59.30
43995;DHT22;51687;52.160;5.298;2023-04-25T01:20:55;12.30;59.20
43995;DHT22;51687;52.160;5.298;2023-04-25T01:23:22;12.20;59.30
43995;DHT22;51687;52.160;5.298;2023-04-25T01:25:49;12.20;59.20
43995;DHT22;51687;52.160;5.298;2023-04-25T01:28:17;12.20;58.80
43995;DHT22;51687;52.160;5.298;2023-04-25T01:30:45;12.20;58.60
43995;DHT22;51687;52.160;5.298;2023-04-25T01:33:14;12.20;58.80
43995;DHT22;51687;52.160;5.298;2023-04-25T01:35:41;12.20;58.80
43995;DHT22;51687;52.160;5.298;2023-04-25T01:38:08;12.20;58.60
43995;DHT22;51687;52.160;5.298;2023-04-25T01:40:38;12.20;58.40
43995;DHT22;51687;52.160;5.298;2023-04-25T01:43:05;12.10;58.50
43995;DHT22;51687;52.160;5.298;2023-04-25T01:45:32;12.20;58.50
43995;DHT22;51687;52.160;5.298;2023-04-25T01:47:59;12.10;58.40
43995;DHT22;51687;52.160;5.298;2023-04-25T01:50:26;12.10;58.40
43995;DHT22;51687;52.160;5.298;2023-04-25T01:52:53;12.10;58.40
43995;DHT22;51687;52.160;5.298;2023-04-25T01:55:20;12.10;58.10
43995;DHT22;51687;52.160;5.298;2023-04-25T01:57:47;12.10;58.10
43995;DHT22;51687;52.160;5.298;2023-04-25T02:00:14;12.10;58.20
43995;DHT22;51687;52.160;5.298;2023-04-25T02:02:41;12.10;58.00
43995;DHT22;51687;52.160;5.298;2023-04-25T02:05:08;12.10;57.70
43995;DHT22;51687;52.160;5.298;2023-04-25T02:07:35;12.10;57.70
43995;DHT22;51687;52.160;5.298;2023-04-25T02:10:02;12.00;57.80
43995;DHT22;51687;52.160;5.298;2023-04-25T02:12:28;12.00;57.90
43995;DHT22;51687;52.160;5.298;2023-04-25T02:14:55;12.00;57.80
43995;DHT22;51687;52.160;5.298;2023-04-25T02:17:22;12.00;57.60
43995;DHT22;51687;52.160;5.298;2023-04-25T02:54:10;12.00;57.30
43995;DHT22;51687;52.160;5.298;2023-04-25T02:56:36;11.60;58.10
43995;DHT22;51687;52.160;5.298;2023-04-25T02:59:03;11.50;58.40
43995;DHT22;51687;52.160;5.298;2023-04-25T03:01:30;11.50;58.60
43995;DHT22;51687;52.160;5.298;2023-04-25T03:03:56;11.50;58.70
43995;DHT22;51687;52.160;5.298;2023-04-25T03:06:23;11.50;58.90
43995;DHT22;51687;52.160;5.298;2023-04-25T03:08:50;11.50;58.90
43995;DHT22;51687;52.160;5.298;2023-04-25T04:29:59;11.50;58.70
43995;DHT22;51687;52.160;5.298;2023-04-25T04:32:26;11.30;60.00
43995;DHT22;51687;52.160;5.298;2023-04-25T04:34:54;11.30;60.20
43995;DHT22;51687;52.160;5.298;2023-04-25T04:37:21;11.30;60.30
43995;DHT22;51687;52.160;5.298;2023-04-25T04:39:49;11.30;60.10
43995;DHT22;51687;52.160;5.298;2023-04-25T04:49:40;11.30;59.90
43995;DHT22;51687;52.160;5.298;2023-04-25T04:52:07;11.20;59.60
43995;DHT22;51687;52.160;5.298;2023-04-25T04:54:33;11.20;60.00
43995;DHT22;51687;52.160;5.298;2023-04-25T04:57:02;11.20;60.20
43995;DHT22;51687;52.160;5.298;2023-04-25T04:59:28;11.20;60.10
43995;DHT22;51687;52.160;5.298;2023-04-25T09:00:46;11.20;59.60
43995;DHT22;51687;52.160;5.298;2023-04-25T09:03:14;13.10;50.50
43995;DHT22;51687;52.160;5.298;2023-04-25T09:05:42;13.10;49.50
43995;DHT22;51687;52.160;5.298;2023-04-25T09:08:12;13.20;49.30
43995;DHT22;51687;52.160;5.298;2023-04-25T09:10:40;13.20;48.50
43995;DHT22;51687;52.160;5.298;2023-04-25T09:13:12;13.20;47.10
43995;DHT22;51687;52.160;5.298;2023-04-25T09:15:53;13.20;45.80
43995;DHT22;51687;52.160;5.298;2023-04-25T09:18:27;13.20;45.40
43995;DHT22;51687;52.160;5.298;2023-04-25T09:21:08;13.30;45.40
43995;DHT22;51687;52.160;5.298;2023-04-25T09:23:47;13.30;44.70
43995;DHT22;51687;52.160;5.298;2023-04-25T09:26:16;13.40;44.80
43995;DHT22;51687;52.160;5.298;2023-04-25T10:41:14;13.40;44.90
43995;DHT22;51687;52.160;5.298;2023-04-25T10:46:16;13.70;42.70
43995;DHT22;51687;52.160;5.298;2023-04-25T10:51:22;13.70;42.90
43995;DHT22;51687;52.160;5.298;2023-04-25T10:56:37;13.80;41.70
43995;DHT22;51687;52.160;5.298;2023-04-25T10:59:08;13.80;43.40
43995;DHT22;51687;52.160;5.298;2023-04-25T11:04:24;13.80;45.40
43995;DHT22;51687;52.160;5.298;2023-04-25T11:09:36;13.80;46.80
43995;DHT22;51687;52.160;5.298;2023-04-25T11:44:23;13.80;47.40
43995;DHT22;51687;52.160;5.298;2023-04-25T11:46:50;14.00;44.20
43995;DHT22;51687;52.160;5.298;2023-04-25T11:49:16;14.00;44.40
43995;DHT22;51687;52.160;5.298;2023-04-25T11:51:48;14.00;44.50
43995;DHT22;51687;52.160;5.298;2023-04-25T11:54:15;14.10;43.10
43995;DHT22;51687;52.160;5.298;2023-04-25T11:56:43;14.10;42.80
43995;DHT22;51687;52.160;5.298;2023-04-25T11:59:11;14.10;43.70
43995;DHT22;51687;52.160;5.298;2023-04-25T12:01:47;14.10;42.40
43995;DHT22;51687;52.160;5.298;2023-04-25T12:06:44;14.10;42.30
43995;DHT22;51687;52.160;5.298;2023-04-25T12:09:14;14.10;41.10
43995;DHT22;51687;52.160;5.298;2023-04-25T12:11:46;14.10;41.70
43995;DHT22;51687;52.160;5.298;2023-04-25T12:14:27;14.00;42.20
43995;DHT22;51687;52.160;5.298;2023-04-25T12:16:57;14.00;42.60
43995;DHT22;51687;52.160;5.298;2023-04-25T12:19:25;14.10;42.20
43995;DHT22;51687;52.160;5.298;2023-04-25T12:21:52;14.10;42.70
43995;DHT22;51687;52.160;5.298;2023-04-25T12:24:24;14.10;43.50
43995;DHT22;51687;52.160;5.298;2023-04-25T12:27:03;14.10;43.00
43995;DHT22;51687;52.160;5.298;2023-04-25T12:29:31;14.10;42.10
43995;DHT22;51687;52.160;5.298;2023-04-25T12:32:16;14.00;41.80
43995;DHT22;51687;52.160;5.298;2023-04-25T12:34:43;14.00;41.70
43995;DHT22;51687;52.160;5.298;2023-04-25T12:37:10;14.10;41.80
43995;DHT22;51687;52.160;5.298;2023-04-25T12:39:37;14.10;41.80
43995;DHT22;51687;52.160;5.298;2023-04-25T12:42:04;14.10;43.50
43995;DHT22;51687;52.160;5.298;2023-04-25T12:44:34;14.10;42.30
43995;DHT22;51687;52.160;5.298;2023-04-25T12:47:02;14.10;42.10
43995;DHT22;51687;52.160;5.298;2023-04-25T12:49:29;14.20;41.50
43995;DHT22;51687;52.160;5.298;2023-04-25T12:51:56;14.20;41.30
43995;DHT22;51687;52.160;5.298;2023-04-25T12:54:23;14.20;41.00
43995;DHT22;51687;52.160;5.298;2023-04-25T12:56:51;14.20;39.70
43995;DHT22;51687;52.160;5.298;2023-04-25T12:59:18;14.20;40.80
43995;DHT22;51687;52.160;5.298;2023-04-25T13:01:46;14.20;38.50
43995;DHT22;51687;52.160;5.298;2023-04-25T13:04:13;14.20;40.30
43995;DHT22;51687;52.160;5.298;2023-04-25T13:06:40;14.30;40.80
43995;DHT22;51687;52.160;5.298;2023-04-25T15:34:26;14.30;41.00
43995;DHT22;51687;52.160;5.298;2023-04-25T15:36:52;16.00;35.40
43995;DHT22;51687;52.160;5.298;2023-04-25T15:39:19;15.90;36.50
43995;DHT22;51687;52.160;5.298;2023-04-25T15:41:46;15.90;35.60
43995;DHT22;51687;52.160;5.298;2023-04-25T15:44:14;15.80;35.20
43995;DHT22;51687;52.160;5.298;2023-04-25T15:46:40;15.80;35.50
43995;DHT22;51687;52.160;5.298;2023-04-25T15:49:07;15.80;35.80
43995;DHT22;51687;52.160;5.298;2023-04-25T15:51:34;15.80;36.00
43995;DHT22;51687;52.160;5.298;2023-04-25T15:54:02;15.80;36.20
43995;DHT22;51687;52.160;5.298;2023-04-25T15:56:29;15.80;36.30
43995;DHT22;51687;52.160;5.298;2023-04-25T15:58:56;15.80;36.50
43995;DHT22;51687;52.160;5.298;2023-04-25T16:01:23;15.80;36.40
43995;DHT22;51687;52.160;5.298;2023-04-25T16:03:51;15.70;36.40
43995;DHT22;51687;52.160;5.298;2023-04-25T16:06:19;15.70;38.90
43995;DHT22;51687;52.160;5.298;2023-04-25T16:08:46;15.70;36.20
43995;DHT22;51687;52.160;5.298;2023-04-25T16:11:12;15.60;36.50
43995;DHT22;51687;52.160;5.298;2023-04-25T16:13:40;15.60;36.50
43995;DHT22;51687;52.160;5.298;2023-04-25T16:16:07;15.60;35.90
43995;DHT22;51687;52.160;5.298;2023-04-25T16:18:34;15.60;36.10
43995;DHT22;51687;52.160;5.298;2023-04-25T16:21:02;15.60;36.40
43995;DHT22;51687;52.160;5.298;2023-04-25T16:23:28;15.60;36.40
43995;DHT22;51687;52.160;5.298;2023-04-25T16:25:55;15.60;37.00
43995;DHT22;51687;52.160;5.298;2023-04-25T16:28:22;15.60;37.20
43995;DHT22;51687;52.160;5.298;2023-04-25T16:30:49;15.50;37.50
43995;DHT22;51687;52.160;5.298;2023-04-25T16:33:16;15.50;37.40
43995;DHT22;51687;52.160;5.298;2023-04-25T16:35:43;15.50;37.30
43995;DHT22;51687;52.160;5.298;2023-04-25T16:38:09;15.50;36.60
43995;DHT22;51687;52.160;5.298;2023-04-25T16:40:36;15.40;36.40
43995;DHT22;51687;52.160;5.298;2023-04-25T16:43:03;15.40;36.60
43995;DHT22;51687;52.160;5.298;2023-04-25T16:45:30;15.40;36.90
43995;DHT22;51687;52.160;5.298;2023-04-25T16:47:59;15.40;37.70
43995;DHT22;51687;52.160;5.298;2023-04-25T16:50:26;15.40;36.90
43995;DHT22;51687;52.160;5.298;2023-04-25T16:52:53;15.40;37.00
43995;DHT22;51687;52.160;5.298;2023-04-25T16:55:20;15.40;37.50
43995;DHT22;51687;52.160;5.298;2023-04-25T16:57:47;15.40;36.40
43995;DHT22;51687;52.160;5.298;2023-04-25T17:00:14;15.40;36.30
43995;DHT22;51687;52.160;5.298;2023-04-25T17:02:42;15.40;35.90
43995;DHT22;51687;52.160;5.298;2023-04-25T17:05:09;15.40;36.20
43995;DHT22;51687;52.160;5.298;2023-04-25T17:07:36;15.40;36.20
43995;DHT22;51687;52.160;5.298;2023-04-25T17:10:03;15.40;36.30
43995;DHT22;51687;52.160;5.298;2023-04-25T17:12:30;15.40;37.00
43995;DHT22;51687;52.160;5.298;2023-04-25T17:14:57;15.40;36.90
43995;DHT22;51687;52.160;5.298;2023-04-25T17:17:25;15.40;36.80
43995;DHT22;51687;52.160;5.298;2023-04-25T17:19:52;15.30;38.30
43995;DHT22;51687;52.160;5.298;2023-04-25T17:22:19;15.30;36.60
43995;DHT22;51687;52.160;5.298;2023-04-25T17:44:37;15.20;36.40
43995;DHT22;51687;52.160;5.298;2023-04-25T17:47:05;15.00;37.20
43995;DHT22;51687;52.160;5.298;2023-04-25T17:49:34;15.00;37.50
43995;DHT22;51687;52.160;5.298;2023-04-25T17:52:01;15.00;37.80
43995;DHT22;51687;52.160;5.298;2023-04-25T17:54:28;15.00;37.60
43995;DHT22;51687;52.160;5.298;2023-04-25T17:56:55;14.90;37.80
43995;DHT22;51687;52.160;5.298;2023-04-25T17:59:22;14.90;37.80
43995;DHT22;51687;52.160;5.298;2023-04-25T18:01:48;14.90;37.80
43995;DHT22;51687;52.160;5.298;2023-04-25T18:04:15;14.90;38.10
43995;DHT22;51687;52.160;5.298;2023-04-25T18:06:43;14.80;38.90
43995;DHT22;51687;52.160;5.298;2023-04-25T18:09:09;14.80;38.40
43995;DHT22;51687;52.160;5.298;2023-04-25T18:11:46;14.80;39.10
43995;DHT22;51687;52.160;5.298;2023-04-25T18:14:13;14.80;39.20
43995;DHT22;51687;52.160;5.298;2023-04-25T18:21:41;14.80;39.10
43995;DHT22;51687;52.160;5.298;2023-04-25T18:24:08;14.70;39.80
43995;DHT22;51687;52.160;5.298;2023-04-25T18:26:38;14.60;39.50
43995;DHT22;51687;52.160;5.298;2023-04-25T18:29:08;14.60;39.70
43995;DHT22;51687;52.160;5.298;2023-04-25T18:31:38;14.60;39.50
43995;DHT22;51687;52.160;5.298;2023-04-25T18:34:04;14.60;39.80
43995;DHT22;51687;52.160;5.298;2023-04-25T18:36:31;14.60;40.20
43995;DHT22;51687;52.160;5.298;2023-04-25T18:38:58;14.60;40.40
43995;DHT22;51687;52.160;5.298;2023-04-25T18:41:44;14.60;40.30
43995;DHT22;51687;52.160;5.298;2023-04-25T18:44:25;14.50;40.10
43995;DHT22;51687;52.160;5.298;2023-04-25T18:46:53;14.50;40.00
43995;DHT22;51687;52.160;5.298;2023-04-25T18:49:20;14.50;40.10
43995;DHT22;51687;52.160;5.298;2023-04-25T19:16:22;14.40;40.20
43995;DHT22;51687;52.160;5.298;2023-04-25T19:18:53;14.20;41.50
43995;DHT22;51687;52.160;5.298;2023-04-25T19:21:20;14.20;42.00
43995;DHT22;51687;52.160;5.298;2023-04-25T19:23:48;14.20;42.40
43995;DHT22;51687;52.160;5.298;2023-04-25T19:26:15;14.20;42.60
43995;DHT22;51687;52.160;5.298;2023-04-25T19:28:43;14.10;42.40
43995;DHT22;51687;52.160;5.298;2023-04-25T19:31:12;14.10;42.70
43995;DHT22;51687;52.160;5.298;2023-04-25T19:33:39;14.10;43.30
43995;DHT22;51687;52.160;5.298;2023-04-25T19:36:07;14.10;43.00
43995;DHT22;51687;52.160;5.298;2023-04-25T19:38:34;14.10;43.20
43995;DHT22;51687;52.160;5.298;2023-04-25T19:45:58;14.10;43.30
43995;DHT22;51687;52.160;5.298;2023-04-25T19:48:24;14.00;43.60
43995;DHT22;51687;52.160;5.298;2023-04-25T19:50:52;13.90;43.60
43995;DHT22;51687;52.160;5.298;2023-04-25T19:53:18;13.90;43.90
43995;DHT22;51687;52.160;5.298;2023-04-25T19:55:45;13.90;44.60
43995;DHT22;51687;52.160;5.298;2023-04-25T19:58:12;13.90;44.70
43995;DHT22;51687;52.160;5.298;2023-04-25T20:00:41;13.80;44.40
43995;DHT22;51687;52.160;5.298;2023-04-25T20:03:07;13.80;44.60
43995;DHT22;51687;52.160;5.298;2023-04-25T20:05:36;13.80;44.90
43995;DHT22;51687;52.160;5.298;2023-04-25T20:08:03;13.70;44.30
43995;DHT22;51687;52.160;5.298;2023-04-25T20:10:30;13.70;44.70
43995;DHT22;51687;52.160;5.298;2023-04-25T20:12:57;13.70;44.30
43995;DHT22;51687;52.160;5.298;2023-04-25T20:15:24;13.60;45.00
43995;DHT22;51687;52.160;5.298;2023-04-25T20:17:50;13.60;45.20
43995;DHT22;51687;52.160;5.298;2023-04-25T20:20:17;13.60;44.90
43995;DHT22;51687;52.160;5.298;2023-04-25T20:25:12;13.50;44.80
43995;DHT22;51687;52.160;5.298;2023-04-25T20:27:39;13.40;45.10
43995;DHT22;51687;52.160;5.298;2023-04-25T20:30:07;13.40;45.50
43995;DHT22;51687;52.160;5.298;2023-04-25T20:32:34;13.40;45.10
43995;DHT22;51687;52.160;5.298;2023-04-25T20:35:04;13.40;44.90
43995;DHT22;51687;52.160;5.298;2023-04-25T20:37:35;13.40;45.30
43995;DHT22;51687;52.160;5.298;2023-04-25T20:40:04;13.30;45.50
43995;DHT22;51687;52.160;5.298;2023-04-25T20:42:33;13.30;45.80
43995;DHT22;51687;52.160;5.298;2023-04-25T20:45:00;13.30;45.70
43995;DHT22;51687;52.160;5.298;2023-04-25T20:47:26;13.30;45.30
43995;DHT22;51687;52.160;5.298;2023-04-25T20:49:53;13.30;45.40
43995;DHT22;51687;52.160;5.298;2023-04-25T20:52:20;13.30;45.40
43995;DHT22;51687;52.160;5.298;2023-04-25T20:54:48;13.30;45.40
43995;DHT22;51687;52.160;5.298;2023-04-25T20:57:16;13.20;45.40
43995;DHT22;51687;52.160;5.298;2023-04-25T20:59:43;13.20;45.60
43995;DHT22;51687;52.160;5.298;2023-04-25T21:02:11;13.20;45.60
43995;DHT22;51687;52.160;5.298;2023-04-25T21:04:39;13.10;45.50
43995;DHT22;51687;52.160;5.298;2023-04-25T21:07:06;13.10;45.70
43995;DHT22;51687;52.160;5.298;2023-04-25T21:09:33;13.10;45.80
43995;DHT22;51687;52.160;5.298;2023-04-25T21:11:59;13.10;46.10
43995;DHT22;51687;52.160;5.298;2023-04-25T21:14:26;13.00;46.30
43995;DHT22;51687;52.160;5.298;2023-04-25T21:16:53;13.00;46.30
43995;DHT22;51687;52.160;5.298;2023-04-25T21:19:20;13.00;46.10
43995;DHT22;51687;52.160;5.298;2023-04-25T21:21:50;13.00;46.20
43995;DHT22;51687;52.160;5.298;2023-04-25T21:24:16;12.90;46.40
43995;DHT22;51687;52.160;5.298;2023-04-25T21:48:51;12.90;46.60
43995;DHT22;51687;52.160;5.298;2023-04-25T21:51:19;12.70;46.80
43995;DHT22;51687;52.160;5.298;2023-04-25T21:53:46;12.60;46.70
43995;DHT22;51687;52.160;5.298;2023-04-25T21:56:13;12.60;46.70
43995;DHT22;51687;52.160;5.298;2023-04-25T21:58:39;12.60;47.00
43995;DHT22;51687;52.160;5.298;2023-04-25T22:01:06;12.50;46.70
43995;DHT22;51687;52.160;5.298;2023-04-25T22:40:27;12.50;46.80
